Time;durP1;ratioP1;P1;durP2;ratioP2;P2;SDS_P1;SDS_P2;PMS_P1;PMS_P2;Temp;Humidity;BMP_temperature;BMP_pressure;BME280_temperature;BME280_humidity;BME280_pressure;Samples;Min_cycle;Max_cycle;Signal;HPM_P1;HPM_P2
2021/07/18 00:00:02;;;;;;;2.67;2.47;;;27.30;52.90;;;;;;5026306;28;20440;-77
2021/07/18 00:02:30;;;;;;;2.83;2.63;;;27.20;53.00;;;;;;5026129;28;20464;-77
2021/07/18 00:05:01;;;;;;;3.27;2.97;;;27.20;52.90;;;;;;5026470;28;20472;-78
2021/07/18 00:07:29;;;;;;;7.03;2.70;;;27.30;53.00;;;;;;5026611;28;20447;-76
2021/07/18 00:09:57;;;;;;;4.30;2.90;;;27.30;52.80;;;;;;5025802;28;20455;-77
2021/07/18 00:12:25;;;;;;;3.83;2.70;;;27.30;52.80;;;;;;5026145;28;20439;-80
2021/07/18 00:14:53;;;;;;;2.67;2.47;;;27.30;53.00;;;;;;5024245;28;20482;-79
2021/07/18 00:17:22;;;;;;;3.60;3.00;;;27.20;52.90;;;;;;5026355;28;20469;-80
2021/07/18 00:19:50;;;;;;;5.33;3.13;;;27.30;52.80;;;;;;5026064;28;20435;-82
2021/07/18 00:22:20;;;;;;;2.90;2.53;;;27.20;52.80;;;;;;5025682;28;20471;-80
2021/07/18 00:24:48;;;;;;;2.67;2.50;;;27.30;53.10;;;;;;5025777;28;20449;-80
2021/07/18 00:27:16;;;;;;;3.23;2.37;;;27.20;52.80;;;;;;5025799;28;20414;-80
2021/07/18 00:29:46;;;;;;;3.47;2.57;;;27.20;52.80;;;;;;5025601;28;20509;-81
2021/07/18 00:32:14;;;;;;;3.30;2.80;;;27.30;52.80;;;;;;5024583;28;20410;-79
2021/07/18 00:34:43;;;;;;;2.77;2.63;;;27.20;52.80;;;;;;5025581;28;20437;-81
2021/07/18 00:37:11;;;;;;;4.00;2.80;;;27.20;52.80;;;;;;5025684;28;20534;-77
2021/07/18 00:39:40;;;;;;;3.10;2.90;;;27.20;52.70;;;;;;5025664;28;20447;-77
2021/07/18 00:42:09;;;;;;;5.80;2.57;;;27.30;52.80;;;;;;5025708;28;20468;-77
2021/07/18 00:44:37;;;;;;;2.70;2.50;;;27.20;52.70;;;;;;5025871;28;20503;-77
2021/07/18 00:47:05;;;;;;;2.73;2.53;;;27.20;52.70;;;;;;5025638;28;20475;-77
2021/07/18 00:49:37;;;;;;;2.93;2.60;;;27.20;52.70;;;;;;5025203;28;20422;-78
2021/07/18 00:52:05;;;;;;;3.00;2.80;;;27.20;52.80;;;;;;5025025;28;20465;-77
2021/07/18 00:54:33;;;;;;;2.97;2.77;;;27.20;52.70;;;;;;5025133;28;20532;-78
2021/07/18 00:57:05;;;;;;;3.43;2.57;;;27.20;52.80;;;;;;5025272;28;20484;-78
2021/07/18 00:59:33;;;;;;;3.70;2.67;;;27.20;52.80;;;;;;5025352;28;20452;-77
2021/07/18 01:02:03;;;;;;;4.20;3.00;;;27.10;52.70;;;;;;5023793;28;20437;-77
2021/07/18 01:04:33;;;;;;;3.40;2.77;;;27.10;52.60;;;;;;5025092;28;20434;-77
2021/07/18 01:07:01;;;;;;;3.63;2.63;;;27.10;52.90;;;;;;5020240;28;20527;-78
2021/07/18 01:09:29;;;;;;;3.47;2.50;;;27.10;52.70;;;;;;5024919;28;20496;-78
2021/07/18 01:11:58;;;;;;;3.13;2.70;;;27.10;52.60;;;;;;5024339;28;20506;-77
2021/07/18 01:14:28;;;;;;;5.47;2.90;;;27.00;52.70;;;;;;5025494;28;20426;-77
2021/07/18 01:16:59;;;;;;;3.03;2.43;;;27.10;52.80;;;;;;5026522;28;20422;-77
2021/07/18 01:19:28;;;;;;;2.67;2.50;;;27.00;52.70;;;;;;5026640;28;20534;-77
2021/07/18 01:21:59;;;;;;;2.50;2.40;;;27.00;52.80;;;;;;5025354;28;20482;-77
2021/07/18 01:24:28;;;;;;;2.70;2.50;;;27.00;52.70;;;;;;5025474;28;20428;-77
2021/07/18 01:26:57;;;;;;;3.83;2.60;;;27.00;52.80;;;;;;5025505;28;20442;-77
2021/07/18 01:29:31;;;;;;;3.30;2.63;;;27.00;52.80;;;;;;5025699;28;20509;-76
2021/07/18 01:32:00;;;;;;;2.97;2.63;;;27.00;52.80;;;;;;5025471;28;20448;-77
2021/07/18 01:34:29;;;;;;;3.03;2.83;;;26.90;52.80;;;;;;5025498;28;20517;-77
2021/07/18 01:37:01;;;;;;;3.03;2.80;;;26.90;52.80;;;;;;5025265;28;20482;-77
2021/07/18 01:39:30;;;;;;;2.63;2.40;;;26.90;52.80;;;;;;5025207;28;20439;-77
2021/07/18 01:41:58;;;;;;;2.73;2.23;;;26.90;52.80;;;;;;5024872;28;20414;-77
2021/07/18 01:44:27;;;;;;;2.80;2.60;;;26.80;52.70;;;;;;5024484;28;20454;-79
2021/07/18 01:46:55;;;;;;;3.73;2.40;;;26.80;52.80;;;;;;5024706;28;20427;-77
2021/07/18 01:49:23;;;;;;;2.60;2.40;;;26.90;52.90;;;;;;5025156;28;20513;-77
2021/07/18 01:51:53;;;;;;;2.37;2.27;;;26.80;52.90;;;;;;5023946;28;20451;-77
2021/07/18 01:54:25;;;;;;;2.43;2.23;;;26.80;53.00;;;;;;5024859;28;20421;-76
2021/07/18 01:56:53;;;;;;;3.50;2.60;;;26.80;52.90;;;;;;5023262;28;20447;-78
2021/07/18 01:59:24;;;;;;;2.90;2.27;;;26.80;52.90;;;;;;5023797;28;20443;-78
2021/07/18 02:01:53;;;;;;;3.17;2.83;;;26.70;52.90;;;;;;5023858;28;20432;-75
2021/07/18 02:04:21;;;;;;;3.03;2.10;;;26.80;52.90;;;;;;5024153;28;20474;-76
2021/07/18 02:06:49;;;;;;;2.77;2.57;;;26.70;52.80;;;;;;5024327;28;20425;-76
2021/07/18 02:09:17;;;;;;;2.77;2.57;;;26.70;53.00;;;;;;5023248;28;20447;-76
2021/07/18 02:11:47;;;;;;;3.13;2.50;;;26.60;53.00;;;;;;5024645;28;20422;-76
2021/07/18 02:14:15;;;;;;;3.17;2.30;;;26.70;53.00;;;;;;5024022;28;20472;-78
2021/07/18 02:16:43;;;;;;;2.63;2.43;;;26.70;53.00;;;;;;5023202;28;20426;-79
2021/07/18 02:19:11;;;;;;;2.43;2.30;;;26.60;53.00;;;;;;5027473;28;20440;-79
2021/07/18 02:21:40;;;;;;;3.67;2.70;;;26.60;53.00;;;;;;5035111;28;20439;-79
2021/07/18 02:24:08;;;;;;;3.63;2.70;;;26.60;52.90;;;;;;5037903;28;20483;-78
2021/07/18 02:26:37;;;;;;;2.33;2.20;;;26.60;53.00;;;;;;5029535;28;20456;-79
2021/07/18 02:29:07;;;;;;;2.40;2.30;;;26.60;53.00;;;;;;5024192;28;20425;-78
2021/07/18 02:31:35;;;;;;;2.97;2.37;;;26.60;53.00;;;;;;5022333;28;20432;-79
2021/07/18 02:34:06;;;;;;;4.50;2.73;;;26.60;53.00;;;;;;5023140;28;20428;-79
2021/07/18 02:36:34;;;;;;;2.97;2.40;;;26.50;53.10;;;;;;5024335;28;20407;-79
2021/07/18 02:39:02;;;;;;;2.87;2.10;;;26.50;52.80;;;;;;5024621;28;20480;-79
2021/07/18 02:41:34;;;;;;;2.33;2.20;;;26.50;53.00;;;;;;5023399;28;20422;-80
2021/07/18 02:44:02;;;;;;;2.27;2.17;;;26.50;53.00;;;;;;5024467;28;20597;-78
2021/07/18 02:46:32;;;;;;;2.67;2.47;;;26.50;53.00;;;;;;5023142;28;20486;-78
2021/07/18 02:49:00;;;;;;;2.40;2.23;;;26.40;53.00;;;;;;5024736;28;20484;-79
2021/07/18 02:51:28;;;;;;;2.53;2.33;;;26.40;53.10;;;;;;5024163;28;20475;-79
2021/07/18 02:53:56;;;;;;;2.57;2.37;;;26.40;53.00;;;;;;5024214;28;20410;-78
2021/07/18 02:56:25;;;;;;;3.27;2.60;;;26.40;53.10;;;;;;5024012;28;20444;-78
2021/07/18 02:58:52;;;;;;;2.50;2.40;;;26.40;53.20;;;;;;5024204;28;20466;-79
2021/07/18 03:01:21;;;;;;;2.40;2.20;;;26.30;53.20;;;;;;5024033;28;20437;-77
2021/07/18 03:03:51;;;;;;;3.80;2.20;;;26.30;53.10;;;;;;5024629;28;20449;-78
2021/07/18 03:06:19;;;;;;;2.60;2.40;;;26.30;53.20;;;;;;5024194;28;20530;-79
2021/07/18 03:08:47;;;;;;;2.33;2.23;;;26.30;53.20;;;;;;5024341;28;20440;-79
2021/07/18 03:11:15;;;;;;;2.50;2.30;;;26.30;53.20;;;;;;5023683;28;20536;-79
2021/07/18 03:13:43;;;;;;;3.57;2.23;;;26.30;53.20;;;;;;5024826;28;20443;-79
2021/07/18 03:16:11;;;;;;;2.53;2.33;;;26.30;53.20;;;;;;5024986;28;20463;-79
2021/07/18 03:18:39;;;;;;;3.43;2.40;;;26.20;53.20;;;;;;5023144;28;20450;-79
2021/07/18 03:21:09;;;;;;;2.20;1.93;;;26.20;53.10;;;;;;5024151;28;20435;-78
2021/07/18 03:23:39;;;;;;;2.30;2.20;;;26.20;53.20;;;;;;5023990;28;20470;-78
2021/07/18 03:26:07;;;;;;;2.63;2.43;;;26.20;53.30;;;;;;5023963;28;20473;-78
2021/07/18 03:28:35;;;;;;;2.80;2.37;;;26.20;53.40;;;;;;5023801;28;20436;-79
2021/07/18 03:31:03;;;;;;;2.43;2.20;;;26.20;53.30;;;;;;5024167;28;20543;-80
2021/07/18 03:33:34;;;;;;;2.10;1.90;;;26.10;53.20;;;;;;5023699;28;20450;-79
2021/07/18 03:36:02;;;;;;;2.33;2.17;;;26.10;53.20;;;;;;5023322;28;20521;-79
2021/07/18 03:38:31;;;;;;;3.00;2.80;;;26.10;53.20;;;;;;5024012;28;20471;-79
2021/07/18 03:41:02;;;;;;;3.33;2.33;;;26.10;53.20;;;;;;5025451;28;20518;-79
2021/07/18 03:43:30;;;;;;;3.77;2.10;;;26.10;53.20;;;;;;5027618;28;20471;-79
2021/07/18 03:45:58;;;;;;;2.50;2.30;;;26.10;53.20;;;;;;5027783;28;20552;-79
2021/07/18 03:48:26;;;;;;;3.00;2.20;;;26.10;53.20;;;;;;5027106;28;20456;-78
2021/07/18 03:50:54;;;;;;;2.50;2.23;;;26.00;53.20;;;;;;5027279;28;20501;-79
2021/07/18 03:53:22;;;;;;;2.30;2.10;;;26.00;53.30;;;;;;5026097;28;20478;-79
2021/07/18 03:55:52;;;;;;;2.00;1.90;;;26.10;53.30;;;;;;5026620;28;20454;-79
2021/07/18 03:58:20;;;;;;;2.00;1.90;;;26.00;53.30;;;;;;5027144;28;20505;-79
2021/07/18 04:00:47;;;;;;;2.43;2.23;;;26.00;53.20;;;;;;5025089;28;20430;-79
2021/07/18 04:03:16;;;;;;;2.17;1.97;;;26.00;53.40;;;;;;5024839;28;20466;-78
2021/07/18 04:05:44;;;;;;;2.30;2.10;;;26.10;53.30;;;;;;5025069;28;20456;-78
2021/07/18 04:08:12;;;;;;;2.60;2.00;;;26.00;53.20;;;;;;5025713;28;20527;-79
2021/07/18 04:10:42;;;;;;;2.40;2.20;;;26.00;53.10;;;;;;5026878;28;20414;-78
2021/07/18 04:13:12;;;;;;;2.50;2.40;;;26.00;53.20;;;;;;5026536;28;20406;-79
2021/07/18 04:15:40;;;;;;;2.00;1.90;;;26.00;53.20;;;;;;5025773;28;20477;-79
2021/07/18 04:18:08;;;;;;;2.20;2.00;;;26.00;53.20;;;;;;5026992;28;20447;-79
2021/07/18 04:20:42;;;;;;;2.60;2.40;;;26.00;53.70;;;;;;5026801;28;20504;-79
2021/07/18 04:23:10;;;;;;;6.20;2.20;;;26.00;53.00;;;;;;5026617;28;20530;-79
2021/07/18 04:25:38;;;;;;;2.30;2.10;;;26.10;53.10;;;;;;5026561;28;20474;-78
2021/07/18 04:28:06;;;;;;;2.13;1.90;;;26.10;53.00;;;;;;5027046;28;20530;-79
2021/07/18 04:30:35;;;;;;;2.00;1.90;;;26.10;52.60;;;;;;5026196;28;20463;-80
2021/07/18 04:33:03;;;;;;;1.93;1.83;;;26.10;52.80;;;;;;5025474;28;20439;-78
2021/07/18 04:35:33;;;;;;;2.40;2.20;;;26.10;52.90;;;;;;5026903;28;20467;-78
2021/07/18 04:38:03;;;;;;;3.23;2.23;;;26.10;52.90;;;;;;5026561;28;20439;-78
2021/07/18 04:40:31;;;;;;;2.10;1.90;;;26.10;52.80;;;;;;5026564;28;20513;-79
2021/07/18 04:42:59;;;;;;;2.10;2.00;;;26.10;52.80;;;;;;5025792;28;20414;-80
2021/07/18 04:45:27;;;;;;;2.23;2.10;;;26.20;52.80;;;;;;5026398;28;20475;-79
2021/07/18 04:47:57;;;;;;;2.40;2.30;;;26.10;52.70;;;;;;5023516;28;20529;-79
2021/07/18 04:50:26;;;;;;;2.60;2.30;;;26.20;52.80;;;;;;5025911;28;20501;-79
2021/07/18 04:52:54;;;;;;;2.60;1.87;;;26.20;52.70;;;;;;5025277;28;20429;-79
2021/07/18 04:55:22;;;;;;;1.90;1.80;;;26.20;52.60;;;;;;5022308;28;20483;-79
2021/07/18 04:57:50;;;;;;;2.60;2.13;;;26.20;52.30;;;;;;5019327;28;20438;-79
2021/07/18 05:00:19;;;;;;;2.63;2.30;;;26.20;52.50;;;;;;5016377;28;20415;-79
2021/07/18 05:02:47;;;;;;;2.27;2.17;;;26.20;52.60;;;;;;5019389;28;20429;-78
2021/07/18 05:05:18;;;;;;;2.23;2.03;;;26.20;52.50;;;;;;5017845;28;20497;-79
2021/07/18 05:07:50;;;;;;;2.97;2.70;;;26.20;52.70;;;;;;5014610;28;20477;-79
2021/07/18 05:10:18;;;;;;;1.80;1.70;;;26.20;52.40;;;;;;5014728;28;20426;-79
2021/07/18 05:12:46;;;;;;;2.17;2.07;;;26.20;52.40;;;;;;5019440;28;20467;-80
2021/07/18 05:15:14;;;;;;;2.10;2.00;;;26.20;52.50;;;;;;5013936;28;20402;-80
2021/07/18 05:17:42;;;;;;;3.30;2.37;;;26.20;52.40;;;;;;5015677;28;20402;-78
2021/07/18 05:20:13;;;;;;;3.00;2.10;;;26.20;52.20;;;;;;5022013;28;20523;-79
2021/07/18 05:22:43;;;;;;;2.30;2.20;;;26.20;52.50;;;;;;5025471;28;20411;-78
2021/07/18 05:25:12;;;;;;;1.97;1.87;;;26.20;52.30;;;;;;5019711;28;20464;-79
2021/07/18 05:27:40;;;;;;;2.70;2.40;;;26.20;52.30;;;;;;5017370;28;20529;-79
2021/07/18 05:30:12;;;;;;;1.90;1.80;;;26.30;52.00;;;;;;5015737;28;20439;-79
2021/07/18 05:32:40;;;;;;;2.43;1.97;;;26.30;52.20;;;;;;5018144;28;20418;-79
2021/07/18 05:35:11;;;;;;;2.33;2.00;;;26.40;52.00;;;;;;5018257;28;20473;-80
2021/07/18 05:37:39;;;;;;;2.90;2.00;;;26.40;52.20;;;;;;5014391;28;20439;-79
2021/07/18 05:40:10;;;;;;;2.43;2.10;;;26.40;52.20;;;;;;5023062;28;20439;-78
2021/07/18 05:42:40;;;;;;;1.90;1.80;;;26.40;52.20;;;;;;5024960;28;20513;-79
2021/07/18 05:45:09;;;;;;;1.90;1.80;;;26.40;52.10;;;;;;5025595;28;20467;-79
2021/07/18 05:47:37;;;;;;;2.20;2.00;;;26.50;52.10;;;;;;5025446;28;20432;-79
2021/07/18 05:50:08;;;;;;;2.00;1.90;;;26.50;52.00;;;;;;5024794;28;20502;-80
2021/07/18 05:52:36;;;;;;;1.93;1.83;;;26.60;51.70;;;;;;5024785;28;20414;-77
2021/07/18 05:55:05;;;;;;;2.87;2.40;;;26.60;51.70;;;;;;5024739;28;20440;-77
2021/07/18 05:57:34;;;;;;;2.17;1.90;;;26.60;51.80;;;;;;5025200;28;20531;-77
2021/07/18 06:00:03;;;;;;;1.70;1.60;;;26.60;52.00;;;;;;5025036;28;20426;-77
2021/07/18 06:02:31;;;;;;;2.10;2.00;;;26.70;51.50;;;;;;5024963;28;20487;-77
2021/07/18 06:04:59;;;;;;;2.00;1.90;;;26.70;51.50;;;;;;5024421;28;20467;-77
2021/07/18 06:07:30;;;;;;;2.30;1.80;;;26.80;51.60;;;;;;5024924;28;20443;-77
2021/07/18 06:09:58;;;;;;;2.03;1.90;;;26.80;51.70;;;;;;5023859;28;20455;-77
2021/07/18 06:12:26;;;;;;;2.77;1.77;;;26.80;51.50;;;;;;5024408;28;20439;-77
2021/07/18 06:14:56;;;;;;;1.93;1.83;;;26.80;51.50;;;;;;5024591;28;20464;-77
2021/07/18 06:17:23;;;;;;;2.07;1.83;;;26.80;51.40;;;;;;5024966;28;20484;-78
2021/07/18 06:19:51;;;;;;;1.90;1.80;;;26.90;51.40;;;;;;5024599;28;20459;-77
2021/07/18 06:22:24;;;;;;;2.50;1.83;;;26.90;51.40;;;;;;5023777;28;20471;-77
2021/07/18 06:24:52;;;;;;;1.97;1.87;;;27.00;51.50;;;;;;5024485;28;20468;-76
2021/07/18 06:27:20;;;;;;;1.77;1.67;;;27.00;52.00;;;;;;5025088;28;20426;-76
2021/07/18 06:29:50;;;;;;;2.30;2.10;;;27.00;51.20;;;;;;5024936;28;20509;-76
2021/07/18 06:32:21;;;;;;;2.13;2.03;;;27.10;51.20;;;;;;5029307;28;20413;-76
2021/07/18 06:34:49;;;;;;;1.90;1.80;;;27.10;51.20;;;;;;5024582;28;20475;-77
2021/07/18 06:37:18;;;;;;;2.13;1.97;;;27.20;51.20;;;;;;5024594;28;20410;-76
2021/07/18 06:39:46;;;;;;;2.00;1.90;;;27.20;51.10;;;;;;5022510;28;20443;-74
2021/07/18 06:42:14;;;;;;;1.90;1.80;;;27.30;51.10;;;;;;5020679;28;20449;-76
2021/07/18 06:44:42;;;;;;;1.90;1.80;;;27.30;51.10;;;;;;5020508;28;20500;-76
2021/07/18 06:47:10;;;;;;;1.90;1.80;;;27.40;51.00;;;;;;5018395;28;20554;-78
2021/07/18 06:49:39;;;;;;;1.97;1.87;;;27.50;51.00;;;;;;5016105;28;20438;-77
2021/07/18 06:52:07;;;;;;;1.90;1.80;;;27.50;50.70;;;;;;5011903;28;20399;-78
2021/07/18 06:54:35;;;;;;;1.90;1.80;;;27.50;50.70;;;;;;5013778;28;20437;-78
2021/07/18 06:57:03;;;;;;;1.97;1.87;;;27.60;50.80;;;;;;5010656;28;20483;-76
2021/07/18 06:59:31;;;;;;;2.13;1.80;;;27.60;50.60;;;;;;5012652;28;20428;-73
2021/07/18 07:02:00;;;;;;;2.10;1.80;;;27.60;50.60;;;;;;5008293;28;20450;-76
2021/07/18 07:04:28;;;;;;;2.10;2.00;;;27.70;50.70;;;;;;5014735;28;20525;-76
2021/07/18 07:06:58;;;;;;;1.70;1.60;;;27.70;50.40;;;;;;5014616;28;20499;-75
2021/07/18 07:09:26;;;;;;;1.90;1.80;;;27.80;50.40;;;;;;5014344;28;20461;-76
2021/07/18 07:11:54;;;;;;;1.90;1.80;;;27.90;50.20;;;;;;5016312;28;20440;-78
2021/07/18 07:14:22;;;;;;;3.40;1.80;;;27.90;50.20;;;;;;5013364;28;20422;-82
2021/07/18 07:16:50;;;;;;;2.03;1.83;;;28.00;50.00;;;;;;5018576;28;20537;-82
2021/07/18 07:19:19;;;;;;;2.60;2.40;;;28.10;50.10;;;;;;5017774;28;20403;-78
2021/07/18 07:21:47;;;;;;;1.90;1.80;;;28.20;50.00;;;;;;5019197;28;20504;-74
2021/07/18 07:24:16;;;;;;;1.90;1.80;;;28.20;49.90;;;;;;5015723;28;20455;-76
2021/07/18 07:26:44;;;;;;;2.23;2.03;;;28.30;50.20;;;;;;5012880;28;20450;-76
2021/07/18 07:29:12;;;;;;;2.43;2.30;;;28.40;50.20;;;;;;5008174;28;20458;-76
2021/07/18 07:31:40;;;;;;;2.50;1.83;;;28.50;49.90;;;;;;5017150;28;20463;-77
2021/07/18 07:34:08;;;;;;;5.10;1.63;;;28.50;50.00;;;;;;5027461;28;20435;-77
2021/07/18 07:36:36;;;;;;;2.23;1.70;;;28.60;49.80;;;;;;5026314;28;20449;-76
2021/07/18 07:39:04;;;;;;;1.60;1.60;;;28.70;49.50;;;;;;5026152;28;20475;-77
2021/07/18 07:41:36;;;;;;;2.53;1.97;;;28.80;49.50;;;;;;5014119;28;20437;-78
2021/07/18 07:44:05;;;;;;;2.00;1.80;;;28.90;49.20;;;;;;5020686;28;20497;-78
2021/07/18 07:46:36;;;;;;;2.20;2.10;;;28.90;49.10;;;;;;5015189;28;20477;-78
2021/07/18 07:49:05;;;;;;;1.77;1.67;;;29.10;49.20;;;;;;5017833;28;20437;-79
2021/07/18 07:51:33;;;;;;;1.70;1.60;;;29.10;49.00;;;;;;5027368;28;20450;-77
2021/07/18 07:54:01;;;;;;;2.27;2.07;;;29.20;48.90;;;;;;5017162;28;20648;-77
2021/07/18 07:56:30;;;;;;;3.47;1.90;;;29.40;49.00;;;;;;5021824;28;20447;-77
2021/07/18 07:58:59;;;;;;;2.00;1.80;;;29.40;48.70;;;;;;5027151;28;20478;-77
2021/07/18 08:01:27;;;;;;;2.10;2.00;;;29.50;48.60;;;;;;5026739;28;20422;-77
2021/07/18 08:03:57;;;;;;;1.67;1.60;;;29.60;48.50;;;;;;5028267;28;20494;-77
2021/07/18 08:06:25;;;;;;;1.80;1.70;;;29.70;48.40;;;;;;5027216;28;20504;-77
2021/07/18 08:08:56;;;;;;;2.20;2.10;;;29.80;48.50;;;;;;5026254;28;20438;-77
2021/07/18 08:11:24;;;;;;;1.90;1.80;;;29.90;48.30;;;;;;5025661;28;20524;-77
2021/07/18 08:13:52;;;;;;;1.60;1.50;;;30.00;48.10;;;;;;5026482;28;20426;-77
2021/07/18 08:16:22;;;;;;;2.00;1.90;;;30.20;48.30;;;;;;5026662;28;20413;-77
2021/07/18 08:18:53;;;;;;;1.93;1.60;;;30.20;48.70;;;;;;5026755;28;20424;-78
2021/07/18 08:21:21;;;;;;;1.50;1.40;;;30.30;48.10;;;;;;5026281;28;20460;-77
2021/07/18 08:24:07;;;;;;;1.80;1.70;;;30.50;48.10;;;;;;5026615;28;20432;-78
2021/07/18 08:26:36;;;;;;;1.83;1.73;;;30.60;47.90;;;;;;5025160;28;20471;-78
2021/07/18 08:29:04;;;;;;;2.27;2.17;;;30.70;47.80;;;;;;5026533;28;20476;-78
2021/07/18 08:31:33;;;;;;;1.77;1.70;;;30.80;47.80;;;;;;5026068;28;20537;-77
2021/07/18 08:34:01;;;;;;;1.70;1.60;;;30.90;47.80;;;;;;5026883;28;20418;-79
2021/07/18 08:36:30;;;;;;;1.60;1.50;;;31.00;47.60;;;;;;5026572;28;20416;-77
2021/07/18 08:38:58;;;;;;;1.70;1.60;;;31.10;47.50;;;;;;5026296;28;20426;-78
2021/07/18 08:41:26;;;;;;;1.40;1.40;;;31.30;47.60;;;;;;5026424;28;20428;-78
2021/07/18 08:43:54;;;;;;;1.60;1.60;;;31.40;47.50;;;;;;5026330;28;20411;-78
2021/07/18 08:46:22;;;;;;;1.70;1.60;;;31.50;47.40;;;;;;5025953;28;20494;-77
2021/07/18 08:48:51;;;;;;;1.40;1.30;;;31.60;47.30;;;;;;5026314;28;20443;-77
2021/07/18 08:51:20;;;;;;;1.60;1.50;;;31.80;47.20;;;;;;5025676;28;20489;-77
2021/07/18 08:53:50;;;;;;;1.70;1.60;;;31.90;47.20;;;;;;5026270;28;20438;-77
2021/07/18 08:56:18;;;;;;;1.93;1.80;;;32.00;47.20;;;;;;5025984;28;20418;-77
2021/07/18 08:58:46;;;;;;;1.73;1.60;;;32.10;47.00;;;;;;5025736;28;20468;-77
2021/07/18 09:01:16;;;;;;;2.00;1.40;;;32.30;47.00;;;;;;5024346;28;20426;-77
2021/07/18 09:03:44;;;;;;;1.70;1.60;;;32.40;47.00;;;;;;5025786;28;20457;-77
2021/07/18 09:06:14;;;;;;;1.40;1.40;;;32.50;46.90;;;;;;5025976;28;20483;-76
2021/07/18 09:08:43;;;;;;;1.90;1.80;;;32.60;46.80;;;;;;5025636;28;20452;-76
2021/07/18 09:11:22;;;;;;;4.40;1.53;;;32.70;47.00;;;;;;5025592;28;20458;-76
2021/07/18 09:14:00;;;;;;;1.70;1.60;;;32.80;47.10;;;;;;5026049;28;20417;-76
2021/07/18 09:16:29;;;;;;;1.40;1.40;;;32.90;47.00;;;;;;5025894;28;20403;-79
2021/07/18 09:19:15;;;;;;;1.60;1.60;;;33.00;47.00;;;;;;5025102;28;20444;-77
2021/07/18 09:21:50;;;;;;;2.00;1.90;;;33.20;47.10;;;;;;5025656;28;20395;-77
2021/07/18 09:24:20;;;;;;;1.73;1.53;;;33.40;46.70;;;;;;5025284;28;20464;-80
2021/07/18 09:27:04;;;;;;;2.60;1.70;;;33.50;46.60;;;;;;5025567;28;20517;-80
2021/07/18 09:29:35;;;;;;;6.10;1.60;;;33.60;46.80;;;;;;5024758;28;20443;-79
2021/07/18 09:32:05;;;;;;;1.27;1.27;;;33.70;46.60;;;;;;5025047;28;20439;-80
2021/07/18 09:34:35;;;;;;;1.70;1.30;;;33.90;46.70;;;;;;5025183;28;20444;-80
2021/07/18 09:37:13;;;;;;;1.83;1.73;;;34.00;46.50;;;;;;5025018;28;20431;-80
2021/07/18 09:39:42;;;;;;;1.60;1.53;;;34.10;46.40;;;;;;5025180;28;20450;-79
2021/07/18 09:42:10;;;;;;;2.43;1.60;;;34.20;46.40;;;;;;5025091;28;20454;-79
2021/07/18 09:44:42;;;;;;;1.40;1.40;;;34.40;46.30;;;;;;5024751;28;20447;-83
2021/07/18 09:47:11;;;;;;;1.23;1.23;;;34.50;46.30;;;;;;5024237;28;20558;-80
2021/07/18 09:49:39;;;;;;;1.70;1.57;;;34.60;46.30;;;;;;5024895;28;20454;-80
2021/07/18 09:52:29;;;;;;;1.67;1.57;;;34.80;46.20;;;;;;5024564;28;20531;-80
2021/07/18 09:54:58;;;;;;;1.50;1.40;;;34.90;46.10;;;;;;5024454;28;20471;-80
2021/07/18 09:57:31;;;;;;;1.57;1.47;;;35.10;45.90;;;;;;5024798;28;20467;-80
2021/07/18 09:59:59;;;;;;;1.53;1.43;;;35.20;45.80;;;;;;5024564;28;20522;-80
2021/07/18 10:02:27;;;;;;;1.40;1.40;;;35.30;45.80;;;;;;5024347;28;20471;-80
2021/07/18 10:04:56;;;;;;;1.50;1.40;;;35.50;45.80;;;;;;5013381;28;20449;-80
2021/07/18 10:07:33;;;;;;;1.60;1.50;;;35.80;45.40;;;;;;5018959;28;20525;-79
2021/07/18 10:10:04;;;;;;;1.87;1.33;;;35.70;45.10;;;;;;5024389;28;20528;-80
2021/07/18 10:12:33;;;;;;;1.40;1.30;;;36.00;45.30;;;;;;5024981;28;20448;-81
2021/07/18 10:15:02;;;;;;;1.20;1.20;;;36.00;45.20;;;;;;5024623;28;20443;-80
2021/07/18 10:17:30;;;;;;;1.93;1.33;;;35.90;45.30;;;;;;5024551;28;20439;-81
2021/07/18 10:19:59;;;;;;;1.93;1.83;;;36.00;45.50;;;;;;5024599;28;20452;-80
2021/07/18 10:22:27;;;;;;;1.23;1.23;;;36.10;45.20;;;;;;5023545;28;20451;-80
2021/07/18 10:24:55;;;;;;;1.67;1.57;;;36.10;45.60;;;;;;5023860;28;20451;-80
2021/07/18 10:27:25;;;;;;;1.40;1.30;;;36.20;45.60;;;;;;5023918;28;20478;-80
2021/07/18 10:29:54;;;;;;;1.60;1.50;;;36.50;45.20;;;;;;5024260;28;20470;-77
2021/07/18 10:32:24;;;;;;;1.53;1.53;;;36.50;45.20;;;;;;5023930;28;20444;-77
2021/07/18 10:34:54;;;;;;;2.13;1.47;;;36.80;44.90;;;;;;5024291;28;20547;-77
2021/07/18 10:37:22;;;;;;;1.30;1.30;;;36.90;44.70;;;;;;5024549;28;20459;-77
2021/07/18 10:39:51;;;;;;;1.50;1.40;;;37.10;44.50;;;;;;5023606;28;20440;-77
2021/07/18 10:42:32;;;;;;;2.50;1.60;;;37.20;44.40;;;;;;5024001;28;20547;-77
2021/07/18 10:45:18;;;;;;;1.40;1.40;;;37.30;44.40;;;;;;5024054;28;20459;-77
2021/07/18 10:47:57;;;;;;;1.60;1.60;;;37.60;44.80;;;;;;5024115;28;20613;-77
2021/07/18 10:50:47;;;;;;;1.67;1.10;;;37.80;44.20;;;;;;5025381;28;20517;-77
2021/07/18 10:53:29;;;;;;;;;;;;;;;;;;;;;
2021/07/18 10:55:59;;;;;;;1.30;1.20;;;38.30;43.40;;;;;;5027659;28;20458;-77
2021/07/18 10:58:46;;;;;;;1.40;1.40;;;38.60;43.40;;;;;;5028127;28;20467;-77
2021/07/18 11:01:35;;;;;;;1.30;1.30;;;38.70;42.90;;;;;;5028137;28;20447;-76
2021/07/18 11:04:05;;;;;;;1.50;1.40;;;38.60;43.40;;;;;;5027938;28;20439;-75
2021/07/18 11:06:34;;;;;;;1.53;1.50;;;38.90;42.90;;;;;;5027929;28;20439;-78
2021/07/18 11:09:11;;;;;;;1.53;1.50;;;39.00;42.40;;;;;;5027793;28;20537;-78
2021/07/18 11:11:39;;;;;;;1.43;1.30;;;39.10;42.30;;;;;;5027379;28;20459;-78
2021/07/18 11:14:25;;;;;;;1.37;1.30;;;39.00;42.60;;;;;;5027187;28;20439;-78
2021/07/18 11:16:55;;;;;;;1.40;1.40;;;39.10;42.40;;;;;;5027569;28;20481;-78
2021/07/18 11:19:57;;;;;;;1.20;1.10;;;39.40;42.20;;;;;;5028400;28;20434;-78
2021/07/18 11:23:01;;;;;;;2.00;1.50;;;39.40;42.10;;;;;;5027301;28;20460;-78
2021/07/18 11:25:50;;;;;;;1.70;1.60;;;39.30;42.00;;;;;;5027592;28;20445;-78
2021/07/18 11:28:53;;;;;;;1.30;1.30;;;39.80;42.50;;;;;;5027343;28;20481;-78
2021/07/18 11:31:25;;;;;;;1.30;1.30;;;41.10;40.90;;;;;;5023767;28;20447;-78
2021/07/18 11:34:01;;;;;;;1.13;1.10;;;41.90;37.50;;;;;;5027382;28;20449;-79
2021/07/18 11:36:55;;;;;;;1.30;1.30;;;42.90;37.70;;;;;;5027476;28;20453;-79
2021/07/18 11:39:25;;;;;;;1.23;1.23;;;44.00;36.80;;;;;;5027524;28;20459;-79
2021/07/18 11:41:53;;;;;;;2.10;1.33;;;45.00;35.30;;;;;;5026823;28;20496;-80
2021/07/18 11:44:27;;;;;;;1.27;1.20;;;45.50;33.30;;;;;;5026980;28;20458;-79
2021/07/18 11:46:56;;;;;;;1.30;1.20;;;44.00;34.10;;;;;;5026568;28;20443;-79
2021/07/18 11:49:32;;;;;;;1.13;1.13;;;43.70;35.40;;;;;;5026958;28;20481;-80
2021/07/18 11:52:08;;;;;;;1.10;1.10;;;43.10;35.50;;;;;;5026117;28;20444;-80
2021/07/18 11:54:36;;;;;;;1.43;1.33;;;43.30;37.50;;;;;;5026827;28;20467;-78
2021/07/18 11:57:06;;;;;;;1.13;1.10;;;44.70;35.10;;;;;;5026700;28;20454;-78
2021/07/18 11:59:34;;;;;;;1.23;1.17;;;45.70;33.60;;;;;;5026653;28;20481;-78
2021/07/18 12:02:02;;;;;;;1.33;1.23;;;46.50;33.00;;;;;;5026152;28;20477;-78
2021/07/18 12:04:34;;;;;;;1.10;1.10;;;47.10;31.60;;;;;;5026647;28;20423;-78
2021/07/18 12:07:07;;;;;;;1.13;1.13;;;47.60;30.80;;;;;;5027007;28;20447;-78
2021/07/18 12:09:37;;;;;;;1.00;1.00;;;47.50;30.10;;;;;;5026864;28;20478;-78
2021/07/18 12:12:06;;;;;;;0.90;0.90;;;47.80;30.50;;;;;;5026208;28;20443;-78
2021/07/18 12:14:35;;;;;;;1.73;0.90;;;48.00;30.60;;;;;;5026508;28;20431;-78
2021/07/18 12:17:08;;;;;;;1.10;1.10;;;48.50;29.90;;;;;;5026059;28;20443;-81
2021/07/18 12:19:38;;;;;;;0.90;0.90;;;48.60;29.70;;;;;;5006590;28;20441;-79
2021/07/18 12:22:09;;;;;;;1.00;1.00;;;49.00;29.20;;;;;;5006343;28;20436;-79
2021/07/18 12:24:42;;;;;;;1.00;1.00;;;48.90;29.20;;;;;;5006483;28;20447;-79
2021/07/18 12:27:14;;;;;;;1.10;1.00;;;48.70;29.20;;;;;;5006133;28;20490;-79
2021/07/18 12:29:45;;;;;;;0.90;0.90;;;48.60;29.50;;;;;;5006771;28;20467;-80
2021/07/18 12:32:13;;;;;;;1.17;1.07;;;48.30;30.00;;;;;;5006323;28;20485;-80
2021/07/18 12:34:43;;;;;;;1.00;1.00;;;48.00;30.00;;;;;;5006497;28;20537;-81
2021/07/18 12:37:12;;;;;;;0.77;0.77;;;47.30;30.00;;;;;;5006661;28;20502;-79
2021/07/18 12:39:42;;;;;;;0.93;0.93;;;46.30;31.10;;;;;;5006125;28;20451;-78
2021/07/18 12:42:11;;;;;;;1.00;1.00;;;45.20;32.60;;;;;;5005669;28;20515;-79
2021/07/18 12:44:45;;;;;;;1.10;1.10;;;45.20;33.60;;;;;;5005789;28;20497;-79
2021/07/18 12:47:21;;;;;;;0.80;0.80;;;45.20;33.70;;;;;;5006076;28;20467;-79
2021/07/18 12:50:10;;;;;;;1.40;1.10;;;45.30;33.70;;;;;;5022512;28;20548;-79
2021/07/18 12:52:39;;;;;;;1.10;1.10;;;44.70;33.60;;;;;;5025604;28;20504;-79
2021/07/18 12:55:17;;;;;;;1.10;1.10;;;44.50;34.60;;;;;;5025097;28;20467;-79
2021/07/18 12:57:45;;;;;;;1.00;1.00;;;44.50;34.60;;;;;;5025976;28;20442;-79
2021/07/18 13:00:14;;;;;;;1.13;1.13;;;44.60;34.40;;;;;;5025433;28;20435;-79
2021/07/18 13:02:42;;;;;;;0.97;0.97;;;44.60;34.50;;;;;;5025301;28;20455;-79